Time;durP1;ratioP1;P1;durP2;ratioP2;P2;SDS_P1;SDS_P2;PMS_P1;PMS_P2;Temp;Humidity;BMP_temperature;BMP_pressure;BME280_temperature;BME280_humidity;BME280_pressure;Samples;Min_cycle;Max_cycle;Signal;HPM_P1;HPM_P2
2021/12/22 00:00:25;;;;;;;25.23;12.80;;;;;;;;;;5020347;28;20040;-76
2021/12/22 00:02:52;;;;;;;25.98;12.40;;;;;;;;;;5020349;28;20053;-78
2021/12/22 00:05:20;;;;;;;33.58;16.00;;;;;;;;;;5018910;28;20109;-75
2021/12/22 00:07:46;;;;;;;36.50;20.23;;;;;;;;;;5021046;28;20118;-78
2021/12/22 00:10:13;;;;;;;34.80;19.55;;;;;;;;;;5021841;28;20037;-79
2021/12/22 00:12:39;;;;;;;23.33;13.00;;;;;;;;;;5020717;28;20053;-74
2021/12/22 00:15:05;;;;;;;22.42;12.23;;;;;;;;;;5020384;28;20052;-79
2021/12/22 00:17:31;;;;;;;26.23;14.02;;;;;;;;;;5020864;28;20109;-77
2021/12/22 00:19:58;;;;;;;28.60;12.98;;;;;;;;;;5007467;28;20038;-75
2021/12/22 00:22:24;;;;;;;20.23;10.80;;;;;;;;;;5016363;28;20018;-75
2021/12/22 00:24:50;;;;;;;20.95;11.68;;;;;;;;;;5020736;28;20047;-77
2021/12/22 00:27:16;;;;;;;20.98;11.32;;;;;;;;;;5013256;28;20030;-78
2021/12/22 00:29:46;;;;;;;24.27;11.15;;;;;;;;;;5010154;28;20061;-78
2021/12/22 00:32:15;;;;;;;21.02;11.27;;;;;;;;;;5019076;28;20022;-78
2021/12/22 00:34:51;;;;;;;20.23;11.82;;;;;;;;;;5017800;28;20398;-74
2021/12/22 00:37:19;;;;;;;22.45;10.77;;;;;;;;;;5008224;28;20018;-78
2021/12/22 00:39:45;;;;;;;20.58;11.82;;;;;;;;;;5011641;28;20493;-78
2021/12/22 00:42:12;;;;;;;18.70;11.30;;;;;;;;;;5007223;28;20042;-78
2021/12/22 00:44:39;;;;;;;19.13;11.50;;;;;;;;;;5021888;28;20084;-79
2021/12/22 00:47:05;;;;;;;24.33;12.02;;;;;;;;;;5014165;28;20029;-75
2021/12/22 00:49:31;;;;;;;28.10;13.93;;;;;;;;;;5011800;28;20084;-77
2021/12/22 00:51:57;;;;;;;30.85;12.10;;;;;;;;;;5021384;28;20045;-76
2021/12/22 00:54:23;;;;;;;22.90;12.93;;;;;;;;;;5017683;28;20025;-77
2021/12/22 00:56:49;;;;;;;22.20;11.68;;;;;;;;;;5016293;28;20484;-78
2021/12/22 00:59:17;;;;;;;26.27;13.43;;;;;;;;;;5009113;28;20022;-77
2021/12/22 01:01:44;;;;;;;16.48;11.25;;;;;;;;;;5013254;28;20466;-75
2021/12/22 01:04:10;;;;;;;23.17;11.85;;;;;;;;;;5019496;28;20113;-76
2021/12/22 01:06:36;;;;;;;19.95;10.70;;;;;;;;;;5013593;28;20026;-74
2021/12/22 01:09:04;;;;;;;24.27;10.85;;;;;;;;;;5024734;28;20033;-76
2021/12/22 01:11:30;;;;;;;23.40;11.07;;;;;;;;;;5023324;28;20029;-74
2021/12/22 01:13:56;;;;;;;29.75;11.23;;;;;;;;;;5010469;28;20114;-79
2021/12/22 01:16:22;;;;;;;20.48;10.32;;;;;;;;;;5004899;28;20054;-76
2021/12/22 01:18:49;;;;;;;24.35;12.30;;;;;;;;;;5005687;28;20030;-78
2021/12/22 01:21:22;;;;;;;20.10;10.98;;;;;;;;;;5023525;28;20076;-75
2021/12/22 01:24:00;;;;;;;26.55;12.07;;;;;;;;;;5023793;28;20546;-78
2021/12/22 01:26:28;;;;;;;20.33;11.60;;;;;;;;;;5022084;28;20060;-76
2021/12/22 01:28:54;;;;;;;18.73;10.30;;;;;;;;;;5006642;28;20045;-74
2021/12/22 01:31:20;;;;;;;18.80;10.25;;;;;;;;;;5022018;28;20026;-75
2021/12/22 01:33:47;;;;;;;20.80;10.35;;;;;;;;;;5013928;28;20106;-77
2021/12/22 01:36:13;;;;;;;18.23;10.25;;;;;;;;;;5004146;28;20053;-78
2021/12/22 01:38:39;;;;;;;23.45;11.75;;;;;;;;;;5020172;28;20037;-76
2021/12/22 01:41:05;;;;;;;19.83;10.95;;;;;;;;;;5019063;28;20061;-76
2021/12/22 01:43:31;;;;;;;19.50;10.23;;;;;;;;;;5012390;28;20060;-73
2021/12/22 01:51:29;;;;;;;24.85;10.82;;;;;;;;;;4999278;28;20072;-76
2021/12/22 01:53:58;;;;;;;23.63;10.85;;;;;;;;;;5021866;28;20022;-79
2021/12/22 01:56:27;;;;;;;30.20;9.95;;;;;;;;;;5007977;28;20030;-78
2021/12/22 01:58:54;;;;;;;24.90;10.93;;;;;;;;;;5003821;28;20042;-74
2021/12/22 02:01:21;;;;;;;17.80;10.18;;;;;;;;;;5008425;28;20497;-76
2021/12/22 02:03:48;;;;;;;19.02;10.55;;;;;;;;;;5012543;28;20057;-74
2021/12/22 02:06:14;;;;;;;20.65;10.90;;;;;;;;;;5003934;28;20034;-75
2021/12/22 02:08:41;;;;;;;20.52;10.70;;;;;;;;;;5020923;28;20034;-75
2021/12/22 02:11:08;;;;;;;21.83;10.63;;;;;;;;;;5018248;28;20517;-75
2021/12/22 02:13:38;;;;;;;23.80;10.95;;;;;;;;;;5011633;28;20049;-74
2021/12/22 02:16:10;;;;;;;20.65;11.02;;;;;;;;;;5010832;28;20018;-75
2021/12/22 02:18:37;;;;;;;17.75;10.27;;;;;;;;;;5004189;28;20018;-77
2021/12/22 02:21:04;;;;;;;22.92;11.95;;;;;;;;;;5018878;28;20022;-78
2021/12/22 02:23:31;;;;;;;19.73;11.35;;;;;;;;;;5003757;28;20077;-79
2021/12/22 02:26:04;;;;;;;21.35;10.98;;;;;;;;;;5003214;28;20034;-78
2021/12/22 02:28:33;;;;;;;17.92;9.82;;;;;;;;;;5018080;28;20385;-78
2021/12/22 02:31:00;;;;;;;20.35;11.32;;;;;;;;;;4992009;28;20033;-76
2021/12/22 02:33:34;;;;;;;17.52;10.25;;;;;;;;;;5016064;28;20050;-77
2021/12/22 02:38:30;;;;;;;14.35;10.23;;;;;;;;;;5018698;28;20076;-75
2021/12/22 02:41:03;;;;;;;20.23;10.07;;;;;;;;;;5019749;28;20109;-75
2021/12/22 02:43:32;;;;;;;19.17;10.20;;;;;;;;;;5011366;28;20036;-76
2021/12/22 02:46:00;;;;;;;24.88;11.05;;;;;;;;;;5011403;28;20095;-77
2021/12/22 02:48:30;;;;;;;18.77;9.82;;;;;;;;;;5003248;28;20045;-74
2021/12/22 02:50:57;;;;;;;16.08;11.32;;;;;;;;;;5018710;28;20061;-74
2021/12/22 02:53:29;;;;;;;21.17;10.52;;;;;;;;;;5009034;28;20021;-78
2021/12/22 02:56:12;;;;;;;24.15;12.73;;;;;;;;;;5021728;28;20018;-78
2021/12/22 02:59:38;;;;;;;20.15;11.23;;;;;;;;;;5004572;28;20046;-75
2021/12/22 03:04:24;;;;;;;22.50;12.50;;;;;;;;;;5015519;28;20072;-77
2021/12/22 03:07:14;;;;;;;20.77;11.77;;;;;;;;;;5005666;28;20026;-77
2021/12/22 03:09:37;;;;;;;17.75;10.25;;;;;;;;;;5011598;28;20034;-77
2021/12/22 03:12:05;;;;;;;16.63;11.60;;;;;;;;;;5015226;28;20077;-77
2021/12/22 03:14:31;;;;;;;23.02;11.50;;;;;;;;;;5021245;28;20022;-76
2021/12/22 03:16:58;;;;;;;19.55;10.98;;;;;;;;;;5021398;28;20022;-76
2021/12/22 03:19:28;;;;;;;22.05;13.10;;;;;;;;;;5013935;28;20030;-78
2021/12/22 03:22:00;;;;;;;20.77;10.68;;;;;;;;;;5002214;28;20022;-76
2021/12/22 03:24:28;;;;;;;20.02;10.25;;;;;;;;;;5001579;28;20082;-76
2021/12/22 03:26:54;;;;;;;19.50;9.95;;;;;;;;;;5022004;28;20026;-79
2021/12/22 03:29:20;;;;;;;16.75;9.88;;;;;;;;;;5014896;28;20037;-79
2021/12/22 03:31:47;;;;;;;16.85;10.65;;;;;;;;;;5013540;28;20025;-77
2021/12/22 03:34:14;;;;;;;24.70;10.52;;;;;;;;;;5008639;28;20073;-77
2021/12/22 03:36:42;;;;;;;18.13;11.73;;;;;;;;;;5003070;28;20082;-78
2021/12/22 03:39:09;;;;;;;20.88;11.48;;;;;;;;;;5008094;28;20024;-75
2021/12/22 03:41:35;;;;;;;23.85;10.57;;;;;;;;;;5012907;28;20034;-78
2021/12/22 03:44:05;;;;;;;21.25;10.05;;;;;;;;;;5002431;28;20035;-74
2021/12/22 03:46:31;;;;;;;18.42;10.90;;;;;;;;;;5018458;28;20034;-76
2021/12/22 03:48:58;;;;;;;22.27;10.75;;;;;;;;;;5006304;28;20056;-76
2021/12/22 03:51:25;;;;;;;21.92;10.88;;;;;;;;;;5014338;28;20029;-75
2021/12/22 03:53:51;;;;;;;20.90;10.38;;;;;;;;;;5012362;28;20027;-78
2021/12/22 03:56:17;;;;;;;18.75;11.63;;;;;;;;;;5001729;28;20034;-74
2021/12/22 03:58:43;;;;;;;22.13;10.98;;;;;;;;;;5019145;28;20041;-79
2021/12/22 04:01:11;;;;;;;21.77;9.88;;;;;;;;;;5002909;28;20123;-74
2021/12/22 04:03:38;;;;;;;18.55;10.43;;;;;;;;;;5002903;28;20449;-77
2021/12/22 04:06:05;;;;;;;20.08;11.85;;;;;;;;;;5015110;28;20022;-76
2021/12/22 04:08:32;;;;;;;24.42;10.02;;;;;;;;;;5022318;28;20033;-78
2021/12/22 04:10:58;;;;;;;20.02;10.75;;;;;;;;;;5006451;28;20021;-76
2021/12/22 04:13:24;;;;;;;22.90;11.00;;;;;;;;;;5016708;28;20038;-76
2021/12/22 04:15:50;;;;;;;22.00;10.77;;;;;;;;;;5034202;28;20057;-78
2021/12/22 04:18:17;;;;;;;19.10;11.43;;;;;;;;;;5021964;28;20101;-78
2021/12/22 04:20:43;;;;;;;22.73;11.18;;;;;;;;;;5022275;28;20053;-75
2021/12/22 04:23:09;;;;;;;26.33;13.00;;;;;;;;;;5017015;28;20057;-76
2021/12/22 04:25:36;;;;;;;19.42;10.65;;;;;;;;;;5011663;28;20029;-80
2021/12/22 04:28:05;;;;;;;24.95;11.50;;;;;;;;;;5018974;28;20491;-76
2021/12/22 04:30:32;;;;;;;22.90;10.07;;;;;;;;;;5005591;28;20058;-74
2021/12/22 04:32:59;;;;;;;19.48;10.70;;;;;;;;;;5022040;28;20072;-79
2021/12/22 04:35:25;;;;;;;22.65;11.85;;;;;;;;;;5021918;28;20026;-77
2021/12/22 04:37:52;;;;;;;21.08;10.73;;;;;;;;;;5023353;28;20036;-76
2021/12/22 04:40:18;;;;;;;22.52;12.25;;;;;;;;;;5027919;28;20037;-77
2021/12/22 04:42:44;;;;;;;19.52;10.70;;;;;;;;;;5010292;28;20041;-74
2021/12/22 04:45:11;;;;;;;20.88;10.82;;;;;;;;;;5025791;28;20396;-78
2021/12/22 04:47:37;;;;;;;19.75;10.32;;;;;;;;;;5026262;28;20030;-77
2021/12/22 04:50:09;;;;;;;20.23;11.10;;;;;;;;;;5027531;28;20026;-75
2021/12/22 04:52:43;;;;;;;21.98;10.07;;;;;;;;;;5012439;28;20026;-74
2021/12/22 04:55:09;;;;;;;23.02;10.60;;;;;;;;;;5029779;28;20026;-75
2021/12/22 04:57:35;;;;;;;21.90;10.00;;;;;;;;;;5028269;28;20057;-74
2021/12/22 05:00:02;;;;;;;17.20;9.60;;;;;;;;;;5013218;28;20080;-78
2021/12/22 05:02:28;;;;;;;16.55;9.43;;;;;;;;;;5027061;28;20030;-74
2021/12/22 05:04:54;;;;;;;20.75;10.43;;;;;;;;;;5027107;28;20033;-79
2021/12/22 05:07:20;;;;;;;17.75;9.93;;;;;;;;;;5027470;28;20030;-74
2021/12/22 05:09:46;;;;;;;15.90;10.27;;;;;;;;;;5019743;28;20030;-77
2021/12/22 05:12:12;;;;;;;15.68;9.00;;;;;;;;;;5014145;28;20074;-77
2021/12/22 05:14:39;;;;;;;26.67;10.27;;;;;;;;;;5006240;28;20026;-77
2021/12/22 05:17:16;;;;;;;19.02;9.43;;;;;;;;;;5023987;28;20025;-76
2021/12/22 05:19:42;;;;;;;17.38;9.13;;;;;;;;;;5025905;28;20026;-77
2021/12/22 05:22:08;;;;;;;18.52;9.82;;;;;;;;;;5015786;28;20040;-75
2021/12/22 05:24:34;;;;;;;15.55;8.57;;;;;;;;;;5010010;28;20037;-79
2021/12/22 05:27:00;;;;;;;22.25;8.90;;;;;;;;;;5023115;28;20026;-75
2021/12/22 05:29:26;;;;;;;18.88;8.73;;;;;;;;;;5014581;28;20034;-77
2021/12/22 05:31:55;;;;;;;14.18;8.65;;;;;;;;;;5008078;28;20033;-78
2021/12/22 05:34:21;;;;;;;16.50;9.95;;;;;;;;;;5018853;28;20168;-79
2021/12/22 05:36:47;;;;;;;15.35;9.35;;;;;;;;;;5025890;28;20061;-74
2021/12/22 05:39:13;;;;;;;18.98;9.07;;;;;;;;;;5025745;28;20025;-79
2021/12/22 05:41:39;;;;;;;24.73;10.57;;;;;;;;;;5017666;28;20025;-79
2021/12/22 05:44:05;;;;;;;19.13;9.70;;;;;;;;;;5015065;28;20038;-78
2021/12/22 05:46:32;;;;;;;18.73;9.80;;;;;;;;;;5024127;28;20025;-76
2021/12/22 05:48:58;;;;;;;16.67;9.20;;;;;;;;;;5023538;28;20029;-77
2021/12/22 05:51:27;;;;;;;18.83;9.90;;;;;;;;;;5017756;28;20030;-74
2021/12/22 05:53:53;;;;;;;18.55;9.85;;;;;;;;;;5006204;28;20042;-77
2021/12/22 05:56:19;;;;;;;17.42;9.25;;;;;;;;;;5004807;28;20030;-77
2021/12/22 05:58:45;;;;;;;18.50;9.85;;;;;;;;;;5020651;28;20042;-77
2021/12/22 06:01:11;;;;;;;18.17;9.70;;;;;;;;;;5025263;28;20030;-75
2021/12/22 06:03:37;;;;;;;20.92;11.63;;;;;;;;;;5016416;28;20061;-77
2021/12/22 06:06:04;;;;;;;18.25;9.75;;;;;;;;;;5003390;28;20026;-78
2021/12/22 06:08:30;;;;;;;22.73;11.23;;;;;;;;;;5004800;28;20034;-74
2021/12/22 06:10:56;;;;;;;19.52;10.20;;;;;;;;;;5005806;28;20612;-76
2021/12/22 06:13:22;;;;;;;16.15;9.73;;;;;;;;;;5012292;28;20029;-79
2021/12/22 06:15:48;;;;;;;20.63;9.90;;;;;;;;;;5014922;28;20018;-76
2021/12/22 06:18:14;;;;;;;20.27;10.77;;;;;;;;;;5018487;28;20050;-76
2021/12/22 06:20:40;;;;;;;17.38;9.77;;;;;;;;;;5025410;28;20038;-75
2021/12/22 06:23:06;;;;;;;20.80;10.27;;;;;;;;;;5025248;28;20105;-77
2021/12/22 06:25:32;;;;;;;19.92;10.00;;;;;;;;;;5027579;28;20080;-73
2021/12/22 06:27:58;;;;;;;19.23;9.80;;;;;;;;;;5027888;28;20037;-73
2021/12/22 06:30:24;;;;;;;21.45;9.95;;;;;;;;;;5027456;28;20022;-74
2021/12/22 06:32:51;;;;;;;21.38;9.93;;;;;;;;;;5028580;28;20073;-73
2021/12/22 06:35:18;;;;;;;19.83;10.82;;;;;;;;;;5028561;28;20018;-73
2021/12/22 06:37:44;;;;;;;19.38;10.35;;;;;;;;;;5028359;28;20033;-74
2021/12/22 06:40:11;;;;;;;16.25;9.82;;;;;;;;;;5028202;28;20081;-73
2021/12/22 06:42:38;;;;;;;20.42;10.70;;;;;;;;;;5028083;28;20030;-73
2021/12/22 06:45:05;;;;;;;18.17;9.77;;;;;;;;;;5028887;28;20026;-72
2021/12/22 06:47:31;;;;;;;24.92;10.85;;;;;;;;;;5028525;28;20026;-72
2021/12/22 06:49:57;;;;;;;19.75;10.57;;;;;;;;;;5028221;28;20034;-74
2021/12/22 06:52:23;;;;;;;27.02;11.38;;;;;;;;;;5028211;28;20105;-72
2021/12/22 06:54:49;;;;;;;25.70;11.75;;;;;;;;;;5028217;28;20022;-73
2021/12/22 06:57:19;;;;;;;22.35;11.88;;;;;;;;;;5027799;28;20061;-73
2021/12/22 06:59:45;;;;;;;28.10;12.18;;;;;;;;;;5027864;28;20081;-74
2021/12/22 07:02:12;;;;;;;25.80;12.48;;;;;;;;;;5027541;28;20032;-74
2021/12/22 07:04:38;;;;;;;21.38;11.88;;;;;;;;;;5010122;28;20030;-74
2021/12/22 07:07:04;;;;;;;21.20;11.60;;;;;;;;;;5007594;28;20474;-75
2021/12/22 07:09:30;;;;;;;21.05;9.73;;;;;;;;;;5013678;28;20048;-76
2021/12/22 07:11:56;;;;;;;21.48;10.57;;;;;;;;;;5027307;28;20022;-75
2021/12/22 07:14:22;;;;;;;24.55;11.77;;;;;;;;;;5025451;28;20045;-77
2021/12/22 07:16:48;;;;;;;24.08;10.23;;;;;;;;;;5026085;28;20030;-77
2021/12/22 07:19:15;;;;;;;26.40;10.88;;;;;;;;;;5019886;28;20026;-76
2021/12/22 07:21:41;;;;;;;20.58;11.77;;;;;;;;;;5004644;28;20050;-75
2021/12/22 07:24:07;;;;;;;27.05;12.13;;;;;;;;;;5015911;28;20053;-77
2021/12/22 07:26:34;;;;;;;21.83;11.82;;;;;;;;;;5011807;28;20032;-75
2021/12/22 07:29:00;;;;;;;23.67;11.90;;;;;;;;;;5024663;28;20022;-74
2021/12/22 07:31:26;;;;;;;26.60;12.38;;;;;;;;;;5017171;28;20046;-78
2021/12/22 07:33:55;;;;;;;30.13;14.23;;;;;;;;;;5010774;28;20042;-75
2021/12/22 07:36:22;;;;;;;29.23;13.85;;;;;;;;;;5003985;28;20058;-79
2021/12/22 07:39:06;;;;;;;22.52;10.90;;;;;;;;;;5004629;28;20026;-76
2021/12/22 07:41:32;;;;;;;23.33;13.23;;;;;;;;;;5004287;28;20080;-77
2021/12/22 07:43:58;;;;;;;29.63;12.40;;;;;;;;;;5018999;28;20388;-78
2021/12/22 07:46:24;;;;;;;24.30;13.57;;;;;;;;;;5024774;28;20026;-77
2021/12/22 07:48:50;;;;;;;13.77;9.32;;;;;;;;;;5024985;28;20044;-77
2021/12/22 07:51:16;;;;;;;18.02;7.80;;;;;;;;;;5010681;28;20053;-77
2021/12/22 07:53:43;;;;;;;25.25;9.82;;;;;;;;;;5004314;28;20030;-80
2021/12/22 07:56:09;;;;;;;18.85;10.88;;;;;;;;;;5011553;28;20085;-78
2021/12/22 07:58:35;;;;;;;20.67;11.48;;;;;;;;;;5013223;28;20110;-75
2021/12/22 08:01:01;;;;;;;26.10;12.40;;;;;;;;;;5008874;28;20485;-77
2021/12/22 08:03:27;;;;;;;22.02;9.90;;;;;;;;;;5019833;28;20034;-76
2021/12/22 08:05:53;;;;;;;13.75;8.18;;;;;;;;;;5016235;28;20029;-77
2021/12/22 08:08:20;;;;;;;10.57;6.43;;;;;;;;;;5016576;28;20026;-76
2021/12/22 08:10:46;;;;;;;8.57;5.72;;;;;;;;;;5012388;28;20030;-76
2021/12/22 08:13:12;;;;;;;11.70;6.30;;;;;;;;;;5008186;28;20425;-73
2021/12/22 08:15:39;;;;;;;9.88;5.50;;;;;;;;;;5000238;28;20026;-74
2021/12/22 08:18:05;;;;;;;12.52;6.63;;;;;;;;;;5008323;28;20030;-73
2021/12/22 08:20:31;;;;;;;10.60;5.82;;;;;;;;;;4999324;28;20041;-74
2021/12/22 08:22:57;;;;;;;10.93;5.85;;;;;;;;;;5005712;28;20113;-73
2021/12/22 08:25:23;;;;;;;8.88;5.63;;;;;;;;;;5018679;28;20026;-77
2021/12/22 08:27:49;;;;;;;12.30;5.68;;;;;;;;;;5010725;28;20031;-75
2021/12/22 08:30:15;;;;;;;7.95;5.28;;;;;;;;;;5007585;28;20037;-73
2021/12/22 08:32:44;;;;;;;8.10;5.13;;;;;;;;;;5004045;28;20038;-74
2021/12/22 08:35:13;;;;;;;7.47;4.95;;;;;;;;;;4994253;28;20030;-73
2021/12/22 08:40:43;;;;;;;7.18;4.75;;;;;;;;;;5025996;28;20025;-77
2021/12/22 08:43:09;;;;;;;7.53;4.80;;;;;;;;;;5018428;28;20029;-74
2021/12/22 08:45:35;;;;;;;9.10;5.10;;;;;;;;;;4998020;28;20058;-76
2021/12/22 08:48:01;;;;;;;9.00;5.20;;;;;;;;;;5023857;28;20030;-75
2021/12/22 08:50:28;;;;;;;11.88;6.20;;;;;;;;;;4990173;28;20058;-73
2021/12/22 08:52:55;;;;;;;6.38;4.60;;;;;;;;;;4994715;28;20026;-75
2021/12/22 08:55:21;;;;;;;9.40;5.65;;;;;;;;;;5021115;28;20198;-73
2021/12/22 08:57:48;;;;;;;11.50;6.35;;;;;;;;;;5025713;28;20076;-78
2021/12/22 09:00:14;;;;;;;10.55;6.50;;;;;;;;;;5008661;28;20046;-74
2021/12/22 09:02:40;;;;;;;13.40;6.95;;;;;;;;;;4979973;28;20039;-79
2021/12/22 09:05:07;;;;;;;12.68;7.30;;;;;;;;;;4998317;28;20042;-78
2021/12/22 09:07:33;;;;;;;12.98;7.75;;;;;;;;;;5015830;28;20076;-75
2021/12/22 09:09:59;;;;;;;11.63;6.40;;;;;;;;;;5011915;28;20034;-73
2021/12/22 09:12:27;;;;;;;11.95;6.82;;;;;;;;;;5018009;28;20120;-75
2021/12/22 09:14:53;;;;;;;13.15;6.82;;;;;;;;;;5025936;28;20021;-74
2021/12/22 09:17:19;;;;;;;13.07;7.03;;;;;;;;;;5023501;28;20037;-74
2021/12/22 09:19:46;;;;;;;10.98;6.50;;;;;;;;;;5007140;28;20027;-74
2021/12/22 09:22:12;;;;;;;11.40;6.07;;;;;;;;;;5002273;28;20035;-75
2021/12/22 09:24:38;;;;;;;13.63;6.95;;;;;;;;;;5027255;28;20048;-76
2021/12/22 09:27:14;;;;;;;14.80;8.85;;;;;;;;;;5009530;28;20465;-73
2021/12/22 09:29:41;;;;;;;12.57;7.45;;;;;;;;;;5002992;28;20035;-74
2021/12/22 09:32:07;;;;;;;12.50;6.25;;;;;;;;;;5017088;28;20147;-75
2021/12/22 09:34:33;;;;;;;11.07;6.57;;;;;;;;;;5011747;28;20046;-76
2021/12/22 09:37:00;;;;;;;8.77;6.13;;;;;;;;;;5027863;28;20034;-75
2021/12/22 09:39:26;;;;;;;11.05;7.13;;;;;;;;;;5019177;28;20046;-77
2021/12/22 09:41:52;;;;;;;14.15;7.03;;;;;;;;;;5012094;28;20076;-75
2021/12/22 09:44:18;;;;;;;11.65;8.10;;;;;;;;;;5029558;28;20037;-75
2021/12/22 09:46:49;;;;;;;11.90;7.45;;;;;;;;;;5029081;28;20056;-73
2021/12/22 09:50:05;;;;;;;19.55;8.00;;;;;;;;;;5027301;28;20034;-74
2021/12/22 09:52:19;;;;;;;14.57;7.80;;;;;;;;;;5027042;28;20049;-73
2021/12/22 09:54:53;;;;;;;15.88;8.70;;;;;;;;;;5028876;28;20018;-73
2021/12/22 09:57:20;;;;;;;14.10;7.03;;;;;;;;;;5026531;28;20080;-72
2021/12/22 10:03:32;;;;;;;14.35;6.88;;;;;;;;;;4982373;28;20018;-74
2021/12/22 10:05:58;;;;;;;12.15;6.93;;;;;;;;;;4967811;29;20035;-73
2021/12/22 10:08:26;;;;;;;11.52;5.90;;;;;;;;;;4992657;28;20045;-73
2021/12/22 10:11:00;;;;;;;10.60;5.78;;;;;;;;;;5017137;28;20385;-72
2021/12/22 10:13:27;;;;;;;7.97;4.90;;;;;;;;;;5008832;28;20457;-73
2021/12/22 10:15:54;;;;;;;11.20;4.43;;;;;;;;;;5007914;28;20113;-74
2021/12/22 10:18:21;;;;;;;9.57;5.70;;;;;;;;;;5004641;28;20042;-75
2021/12/22 10:20:48;;;;;;;14.50;6.63;;;;;;;;;;4990723;28;20050;-76
2021/12/22 10:23:24;;;;;;;8.00;5.03;;;;;;;;;;4988705;28;20038;-73
2021/12/22 10:25:51;;;;;;;11.50;6.65;;;;;;;;;;4997896;28;20034;-73
2021/12/22 10:28:19;;;;;;;8.57;5.57;;;;;;;;;;5007618;28;20027;-72
2021/12/22 10:30:47;;;;;;;12.10;6.43;;;;;;;;;;5004347;28;20385;-73
2021/12/22 10:33:16;;;;;;;11.82;6.00;;;;;;;;;;4989012;28;20023;-73
2021/12/22 10:35:45;;;;;;;10.10;5.97;;;;;;;;;;5005198;28;20141;-73
2021/12/22 10:38:12;;;;;;;9.13;5.03;;;;;;;;;;5014375;28;20022;-72
2021/12/22 10:40:40;;;;;;;15.02;6.78;;;;;;;;;;5008172;28;20023;-72
2021/12/22 10:43:09;;;;;;;9.20;5.38;;;;;;;;;;5006457;28;20023;-76
2021/12/22 10:45:36;;;;;;;9.18;6.38;;;;;;;;;;5007866;28;20022;-72
2021/12/22 10:50:59;;;;;;;9.10;5.97;;;;;;;;;;4994190;28;20512;-73
2021/12/22 10:53:25;;;;;;;10.57;6.20;;;;;;;;;;5005158;28;20106;-75
2021/12/22 10:55:56;;;;;;;14.32;7.05;;;;;;;;;;5004419;28;20022;-73
2021/12/22 10:58:30;;;;;;;16.00;10.68;;;;;;;;;;5006207;28;20064;-73
2021/12/22 11:01:04;;;;;;;16.27;11.32;;;;;;;;;;5000746;28;20027;-72
2021/12/22 11:03:40;;;;;;;14.23;8.03;;;;;;;;;;5000672;28;20023;-77
2021/12/22 11:06:06;;;;;;;;;;;;;;;;;;4996214;28;20101;-74
2021/12/22 11:08:32;;;;;;;23.67;12.20;;;;;;;;;;5006669;28;20459;-73
2021/12/22 11:10:58;;;;;;;21.92;10.90;;;;;;;;;;4992758;28;20089;-72
2021/12/22 11:13:25;;;;;;;10.68;6.65;;;;;;;;;;5006451;28;20035;-75
2021/12/22 11:15:51;;;;;;;12.30;6.00;;;;;;;;;;5002795;28;20031;-73
2021/12/22 11:18:27;;;;;;;7.15;4.97;;;;;;;;;;5000612;28;20084;-72
2021/12/22 11:21:09;;;;;;;10.60;6.30;;;;;;;;;;4988917;28;20061;-71
2021/12/22 11:23:35;;;;;;;14.90;11.23;;;;;;;;;;4996823;28;20023;-74
2021/12/22 11:26:02;;;;;;;11.88;8.50;;;;;;;;;;5005637;28;20045;-73
2021/12/22 11:28:28;;;;;;;10.40;6.07;;;;;;;;;;5007069;28;20023;-76
2021/12/22 11:30:55;;;;;;;8.32;4.55;;;;;;;;;;5006454;28;20030;-71
2021/12/22 11:33:21;;;;;;;11.90;5.30;;;;;;;;;;5006974;28;20018;-73
2021/12/22 11:35:48;;;;;;;8.75;5.60;;;;;;;;;;4988765;28;20026;-75
2021/12/22 11:38:14;;;;;;;9.15;5.40;;;;;;;;;;4987716;28;20022;-73
2021/12/22 11:40:44;;;;;;;7.43;5.10;;;;;;;;;;4994625;28;20390;-72
2021/12/22 11:43:11;;;;;;;7.45;4.65;;;;;;;;;;5003885;28;20030;-72
2021/12/22 11:45:38;;;;;;;7.10;4.13;;;;;;;;;;5018641;28;20030;-73
2021/12/22 11:48:04;;;;;;;6.82;4.38;;;;;;;;;;5026052;28;20062;-72
2021/12/22 11:50:32;;;;;;;17.00;9.48;;;;;;;;;;5016176;28;20042;-71
2021/12/22 11:53:03;;;;;;;9.45;6.25;;;;;;;;;;4996201;28;20105;-74
2021/12/22 11:55:35;;;;;;;5.47;3.90;;;;;;;;;;5007376;28;20019;-72
2021/12/22 11:58:12;;;;;;;9.07;5.97;;;;;;;;;;4995261;28;20057;-71
2021/12/22 12:00:39;;;;;;;10.57;6.45;;;;;;;;;;5002906;28;20038;-73
2021/12/22 12:03:23;;;;;;;12.32;5.10;;;;;;;;;;4987443;28;20034;-72
2021/12/22 12:06:03;;;;;;;7.03;3.88;;;;;;;;;;4989387;28;20145;-72
2021/12/22 12:08:49;;;;;;;8.93;4.68;;;;;;;;;;4987319;28;20054;-73
2021/12/22 12:11:20;;;;;;;7.10;4.70;;;;;;;;;;4988909;28;20033;-75
2021/12/22 12:22:16;;;;;;;7.18;4.10;;;;;;;;;;5003279;28;20049;-72
2021/12/22 12:24:44;;;;;;;8.35;4.47;;;;;;;;;;5004435;28;20099;-72
2021/12/22 12:27:29;;;;;;;14.05;6.35;;;;;;;;;;5005642;28;20030;-72
2021/12/22 12:29:55;;;;;;;7.13;4.18;;;;;;;;;;5006747;28;20041;-72
2021/12/22 12:32:39;;;;;;;6.18;4.10;;;;;;;;;;5006867;28;20018;-73
2021/12/22 12:35:22;;;;;;;8.65;4.13;;;;;;;;;;5004001;28;20023;-71
2021/12/22 12:38:07;;;;;;;7.38;4.78;;;;;;;;;;4989383;28;20026;-76
2021/12/22 12:40:52;;;;;;;5.20;4.47;;;;;;;;;;4986270;28;20031;-72
2021/12/22 12:43:18;;;;;;;6.40;4.18;;;;;;;;;;4986658;28;20027;-72
2021/12/22 12:45:46;;;;;;;5.03;4.03;;;;;;;;;;4989296;28;20035;-72
2021/12/22 12:48:31;;;;;;;10.00;5.40;;;;;;;;;;5015247;28;20069;-72
2021/12/22 12:51:16;;;;;;;7.85;4.90;;;;;;;;;;5025969;28;20026;-72
2021/12/22 12:53:43;;;;;;;8.35;4.35;;;;;;;;;;4987224;28;20440;-73
2021/12/22 12:56:10;;;;;;;5.95;4.47;;;;;;;;;;4997350;28;20021;-72
2021/12/22 12:58:52;;;;;;;5.68;4.40;;;;;;;;;;5027009;28;20042;-72
2021/12/22 13:01:18;;;;;;;7.63;5.15;;;;;;;;;;5029768;28;20078;-72
2021/12/22 13:03:54;;;;;;;7.57;5.32;;;;;;;;;;5014564;28;20015;-74
2021/12/22 13:06:19;;;;;;;;;;;;;;;;;;5010516;28;20540;-73
2021/12/22 13:08:46;;;;;;;;;;;;;;;;;;5009830;28;19906;-75
2021/12/22 13:11:12;;;;;;;;;;;;;;;;;;5010571;28;19910;-72
2021/12/22 13:15:46;;;;;;;7.53;5.95;;;;;;;;;;5010007;28;20000;-72
2021/12/22 13:16:40;;;;;;;8.65;4.88;;;;;;;;;;5005014;28;20062;-72
2021/12/22 13:19:06;;;;;;;5.28;3.85;;;;;;;;;;5011035;28;20025;-73
2021/12/22 13:21:32;;;;;;;7.10;4.60;;;;;;;;;;5010312;28;20025;-74
2021/12/22 13:24:14;;;;;;;7.30;4.95;;;;;;;;;;5008670;28;20049;-73
2021/12/22 13:26:47;;;;;;;4.85;3.42;;;;;;;;;;5008977;28;20030;-72
2021/12/22 13:29:14;;;;;;;7.03;3.60;;;;;;;;;;5004276;28;20050;-73
2021/12/22 13:31:40;;;;;;;8.02;4.43;;;;;;;;;;5004389;28;20049;-75
2021/12/22 13:34:06;;;;;;;5.10;3.47;;;;;;;;;;5021327;28;20443;-72
2021/12/22 13:36:32;;;;;;;8.48;4.85;;;;;;;;;;5028540;28;20037;-74
2021/12/22 13:39:11;;;;;;;;;;;;;;;;;;;;;
2021/12/22 13:41:37;;;;;;;5.03;3.65;;;;;;;;;;5017964;28;20090;-71
2021/12/22 13:44:06;;;;;;;6.18;3.25;;;;;;;;;;5028802;28;20052;-71
2021/12/22 13:46:34;;;;;;;5.38;3.78;;;;;;;;;;5020716;28;20065;-71
2021/12/22 13:49:04;;;;;;;6.63;3.92;;;;;;;;;;5008577;28;20021;-71
2021/12/22 13:51:33;;;;;;;5.50;3.60;;;;;;;;;;4992997;28;20027;-74
2021/12/22 13:54:00;;;;;;;7.97;4.50;;;;;;;;;;5005123;28;20023;-73
2021/12/22 13:56:26;;;;;;;7.65;4.60;;;;;;;;;;5028421;28;20037;-73
2021/12/22 13:58:56;;;;;;;11.07;6.13;;;;;;;;;;5010674;28;20046;-72
2021/12/22 14:01:22;;;;;;;6.32;4.40;;;;;;;;;;5006160;28;20022;-72
2021/12/22 14:04:09;;;;;;;7.43;5.38;;;;;;;;;;5024085;28;20093;-72
2021/12/22 14:06:35;;;;;;;4.68;3.88;;;;;;;;;;5008604;28;20030;-72
2021/12/22 14:09:10;;;;;;;5.13;3.60;;;;;;;;;;5007942;28;20026;-72
2021/12/22 14:11:41;;;;;;;5.43;3.22;;;;;;;;;;5008151;28;20033;-72
2021/12/22 14:14:27;;;;;;;3.05;2.75;;;;;;;;;;5009115;28;20026;-72
2021/12/22 14:17:14;;;;;;;3.47;3.00;;;;;;;;;;5009037;28;20033;-72
2021/12/22 14:19:40;;;;;;;5.95;4.22;;;;;;;;;;4998671;28;20042;-73
2021/12/22 14:22:17;;;;;;;6.60;3.90;;;;;;;;;;5009193;28;20022;-71
2021/12/22 14:24:47;;;;;;;5.18;4.50;;;;;;;;;;5008849;28;20026;-72
2021/12/22 14:27:15;;;;;;;6.93;4.03;;;;;;;;;;5008943;28;20042;-72
2021/12/22 14:29:51;;;;;;;6.47;4.85;;;;;;;;;;5008820;28;20077;-72
2021/12/22 14:32:37;;;;;;;8.07;6.28;;;;;;;;;;5008959;28;20023;-72
2021/12/22 14:35:07;;;;;;;7.47;5.50;;;;;;;;;;5008148;28;20030;-74
2021/12/22 14:37:33;;;;;;;5.18;3.58;;;;;;;;;;5019645;28;20033;-73
2021/12/22 14:40:00;;;;;;;9.18;6.45;;;;;;;;;;5011851;28;20037;-74
2021/12/22 14:42:27;;;;;;;4.45;3.55;;;;;;;;;;5009004;28;20036;-72
2021/12/22 14:45:13;;;;;;;5.45;3.17;;;;;;;;;;5012197;28;20030;-71
2021/12/22 14:47:39;;;;;;;4.57;2.60;;;;;;;;;;5026871;28;20022;-73
2021/12/22 14:50:15;;;;;;;6.60;4.03;;;;;;;;;;5019614;28;20037;-74
2021/12/22 14:52:54;;;;;;;5.60;4.70;;;;;;;;;;5018284;28;20026;-73
2021/12/22 14:55:36;;;;;;;4.65;4.10;;;;;;;;;;5027958;28;20393;-72
2021/12/22 14:58:02;;;;;;;5.78;4.00;;;;;;;;;;5026102;28;20076;-76
2021/12/22 15:00:28;;;;;;;5.47;4.97;;;;;;;;;;5028381;28;20034;-72
2021/12/22 15:02:56;;;;;;;5.55;4.57;;;;;;;;;;5018703;28;20026;-73
2021/12/22 15:05:22;;;;;;;6.50;4.10;;;;;;;;;;5007838;28;20034;-73
2021/12/22 15:07:52;;;;;;;5.70;3.95;;;;;;;;;;5014148;28;20042;-72